sensor_id;sensor_type;location;lat;lon;timestamp;P1;durP1;ratioP1;P2;durP2;ratioP2
793;SDS011;380;48.738;9.214;2023-05-23T00:01:24;22.63;;;18.33;;
793;SDS011;380;48.738;9.214;2023-05-23T00:03:50;27.45;;;20.48;;
793;SDS011;380;48.738;9.214;2023-05-23T00:06:19;22.10;;;17.67;;
793;SDS011;380;48.738;9.214;2023-05-23T00:08:45;22.95;;;17.75;;
793;SDS011;380;48.738;9.214;2023-05-23T00:11:11;26.15;;;19.27;;
793;SDS011;380;48.738;9.214;2023-05-23T00:13:37;21.50;;;19.15;;
793;SDS011;380;48.738;9.214;2023-05-23T00:16:04;23.52;;;20.98;;
793;SDS011;380;48.738;9.214;2023-05-23T00:18:33;29.23;;;22.40;;
793;SDS011;380;48.738;9.214;2023-05-23T00:20:59;28.23;;;23.25;;
793;SDS011;380;48.738;9.214;2023-05-23T00:23:26;34.20;;;23.17;;
793;SDS011;380;48.738;9.214;2023-05-23T00:25:53;27.30;;;23.08;;
793;SDS011;380;48.738;9.214;2023-05-23T00:28:19;34.58;;;24.45;;
793;SDS011;380;48.738;9.214;2023-05-23T00:30:46;36.00;;;27.27;;
793;SDS011;380;48.738;9.214;2023-05-23T00:33:15;32.30;;;22.85;;
793;SDS011;380;48.738;9.214;2023-05-23T00:35:41;33.13;;;26.25;;
793;SDS011;380;48.738;9.214;2023-05-23T00:38:08;29.63;;;24.95;;
793;SDS011;380;48.738;9.214;2023-05-23T00:40:35;30.45;;;25.25;;
793;SDS011;380;48.738;9.214;2023-05-23T00:43:01;30.75;;;24.85;;
793;SDS011;380;48.738;9.214;2023-05-23T00:45:27;33.38;;;24.80;;
793;SDS011;380;48.738;9.214;2023-05-23T00:47:53;29.77;;;26.52;;
793;SDS011;380;48.738;9.214;2023-05-23T00:50:19;32.22;;;26.85;;
793;SDS011;380;48.738;9.214;2023-05-23T00:52:45;30.13;;;26.83;;
793;SDS011;380;48.738;9.214;2023-05-23T00:55:13;46.85;;;28.80;;
793;SDS011;380;48.738;9.214;2023-05-23T00:57:40;36.72;;;26.23;;
793;SDS011;380;48.738;9.214;2023-05-23T01:00:08;37.28;;;27.23;;
793;SDS011;380;48.738;9.214;2023-05-23T01:02:36;29.23;;;25.65;;
793;SDS011;380;48.738;9.214;2023-05-23T01:07:31;34.42;;;25.98;;
793;SDS011;380;48.738;9.214;2023-05-23T01:09:57;39.58;;;27.88;;
793;SDS011;380;48.738;9.214;2023-05-23T01:12:44;36.63;;;26.98;;
793;SDS011;380;48.738;9.214;2023-05-23T01:15:11;32.63;;;27.27;;
793;SDS011;380;48.738;9.214;2023-05-23T01:17:41;35.17;;;27.23;;
793;SDS011;380;48.738;9.214;2023-05-23T01:20:20;37.42;;;29.38;;
793;SDS011;380;48.738;9.214;2023-05-23T01:28:00;37.17;;;27.90;;
793;SDS011;380;48.738;9.214;2023-05-23T01:30:27;38.03;;;28.85;;
793;SDS011;380;48.738;9.214;2023-05-23T01:32:55;33.88;;;27.55;;
793;SDS011;380;48.738;9.214;2023-05-23T01:35:23;37.67;;;27.55;;
793;SDS011;380;48.738;9.214;2023-05-23T01:37:51;34.10;;;28.70;;
793;SDS011;380;48.738;9.214;2023-05-23T01:40:17;42.92;;;30.45;;
793;SDS011;380;48.738;9.214;2023-05-23T01:42:43;40.67;;;29.60;;
793;SDS011;380;48.738;9.214;2023-05-23T01:45:09;34.90;;;29.23;;
793;SDS011;380;48.738;9.214;2023-05-23T01:47:35;39.08;;;30.95;;
793;SDS011;380;48.738;9.214;2023-05-23T01:50:02;39.58;;;30.83;;
793;SDS011;380;48.738;9.214;2023-05-23T01:52:28;36.75;;;28.20;;
793;SDS011;380;48.738;9.214;2023-05-23T01:54:54;38.58;;;28.77;;
793;SDS011;380;48.738;9.214;2023-05-23T01:57:21;37.63;;;28.77;;
793;SDS011;380;48.738;9.214;2023-05-23T01:59:47;42.08;;;29.13;;
793;SDS011;380;48.738;9.214;2023-05-23T02:02:13;43.40;;;30.60;;
793;SDS011;380;48.738;9.214;2023-05-23T02:04:39;39.15;;;30.50;;
793;SDS011;380;48.738;9.214;2023-05-23T02:07:05;44.30;;;32.75;;
793;SDS011;380;48.738;9.214;2023-05-23T02:09:31;42.58;;;30.08;;
793;SDS011;380;48.738;9.214;2023-05-23T02:11:57;39.53;;;30.85;;
793;SDS011;380;48.738;9.214;2023-05-23T02:14:23;36.38;;;29.45;;
793;SDS011;380;48.738;9.214;2023-05-23T02:16:50;37.05;;;29.50;;
793;SDS011;380;48.738;9.214;2023-05-23T02:19:16;40.83;;;31.50;;
793;SDS011;380;48.738;9.214;2023-05-23T02:21:42;43.05;;;32.63;;
793;SDS011;380;48.738;9.214;2023-05-23T02:24:08;38.53;;;32.45;;
793;SDS011;380;48.738;9.214;2023-05-23T02:26:35;40.22;;;31.80;;
793;SDS011;380;48.738;9.214;2023-05-23T02:29:01;39.97;;;32.05;;
793;SDS011;380;48.738;9.214;2023-05-23T02:31:27;39.67;;;30.25;;
793;SDS011;380;48.738;9.214;2023-05-23T02:33:53;45.63;;;31.90;;
793;SDS011;380;48.738;9.214;2023-05-23T02:36:19;42.83;;;33.40;;
793;SDS011;380;48.738;9.214;2023-05-23T02:38:45;44.05;;;34.08;;
793;SDS011;380;48.738;9.214;2023-05-23T02:41:11;45.92;;;33.08;;
793;SDS011;380;48.738;9.214;2023-05-23T02:43:37;38.17;;;33.92;;
793;SDS011;380;48.738;9.214;2023-05-23T02:46:03;46.83;;;33.53;;
793;SDS011;380;48.738;9.214;2023-05-23T02:48:29;37.83;;;32.55;;
793;SDS011;380;48.738;9.214;2023-05-23T02:50:55;44.92;;;32.92;;
793;SDS011;380;48.738;9.214;2023-05-23T02:53:21;42.65;;;32.60;;
793;SDS011;380;48.738;9.214;2023-05-23T02:55:47;42.63;;;33.45;;
793;SDS011;380;48.738;9.214;2023-05-23T02:58:13;48.63;;;33.88;;
793;SDS011;380;48.738;9.214;2023-05-23T03:00:40;42.83;;;33.78;;
793;SDS011;380;48.738;9.214;2023-05-23T03:03:07;43.25;;;34.17;;
793;SDS011;380;48.738;9.214;2023-05-23T03:05:33;47.58;;;35.53;;
793;SDS011;380;48.738;9.214;2023-05-23T03:08:00;46.17;;;34.03;;
793;SDS011;380;48.738;9.214;2023-05-23T03:10:26;41.03;;;34.55;;
793;SDS011;380;48.738;9.214;2023-05-23T03:12:52;49.45;;;35.75;;
793;SDS011;380;48.738;9.214;2023-05-23T03:15:18;39.90;;;33.30;;
793;SDS011;380;48.738;9.214;2023-05-23T03:17:44;44.22;;;37.25;;
793;SDS011;380;48.738;9.214;2023-05-23T03:20:10;46.00;;;35.30;;
793;SDS011;380;48.738;9.214;2023-05-23T03:22:36;43.55;;;33.70;;
793;SDS011;380;48.738;9.214;2023-05-23T03:25:02;47.17;;;36.10;;
793;SDS011;380;48.738;9.214;2023-05-23T03:27:28;46.72;;;35.38;;
793;SDS011;380;48.738;9.214;2023-05-23T03:29:54;46.92;;;37.70;;
793;SDS011;380;48.738;9.214;2023-05-23T03:32:20;45.78;;;36.03;;
793;SDS011;380;48.738;9.214;2023-05-23T03:34:46;43.33;;;35.20;;
793;SDS011;380;48.738;9.214;2023-05-23T03:37:12;50.55;;;36.80;;
793;SDS011;380;48.738;9.214;2023-05-23T03:39:38;36.22;;;31.23;;
793;SDS011;380;48.738;9.214;2023-05-23T03:42:04;39.05;;;32.30;;
793;SDS011;380;48.738;9.214;2023-05-23T03:44:30;36.03;;;31.23;;
793;SDS011;380;48.738;9.214;2023-05-23T03:46:56;39.42;;;31.67;;
793;SDS011;380;48.738;9.214;2023-05-23T03:49:22;39.95;;;32.47;;
793;SDS011;380;48.738;9.214;2023-05-23T03:51:48;40.58;;;31.55;;
793;SDS011;380;48.738;9.214;2023-05-23T03:54:14;38.25;;;29.00;;
793;SDS011;380;48.738;9.214;2023-05-23T03:56:42;37.40;;;32.60;;
793;SDS011;380;48.738;9.214;2023-05-23T03:59:08;40.40;;;32.50;;
793;SDS011;380;48.738;9.214;2023-05-23T04:01:34;38.50;;;32.67;;
793;SDS011;380;48.738;9.214;2023-05-23T04:04:00;36.80;;;30.48;;
793;SDS011;380;48.738;9.214;2023-05-23T04:06:26;36.38;;;29.92;;
793;SDS011;380;48.738;9.214;2023-05-23T04:08:55;39.88;;;30.92;;
793;SDS011;380;48.738;9.214;2023-05-23T04:11:21;36.72;;;31.65;;
793;SDS011;380;48.738;9.214;2023-05-23T04:13:47;34.20;;;30.50;;
793;SDS011;380;48.738;9.214;2023-05-23T04:16:13;32.83;;;28.65;;
793;SDS011;380;48.738;9.214;2023-05-23T04:18:40;36.67;;;28.85;;
793;SDS011;380;48.738;9.214;2023-05-23T04:21:07;32.50;;;27.85;;
793;SDS011;380;48.738;9.214;2023-05-23T04:23:33;33.38;;;26.48;;
793;SDS011;380;48.738;9.214;2023-05-23T04:25:59;35.85;;;28.70;;
793;SDS011;380;48.738;9.214;2023-05-23T04:28:25;40.95;;;28.60;;
793;SDS011;380;48.738;9.214;2023-05-23T04:30:54;34.08;;;28.60;;
793;SDS011;380;48.738;9.214;2023-05-23T04:33:20;33.05;;;29.52;;
793;SDS011;380;48.738;9.214;2023-05-23T04:35:46;38.45;;;28.65;;
793;SDS011;380;48.738;9.214;2023-05-23T04:38:13;36.35;;;29.80;;
793;SDS011;380;48.738;9.214;2023-05-23T04:40:39;31.48;;;26.70;;
793;SDS011;380;48.738;9.214;2023-05-23T04:43:05;34.97;;;29.08;;
793;SDS011;380;48.738;9.214;2023-05-23T04:45:33;37.83;;;28.33;;
793;SDS011;380;48.738;9.214;2023-05-23T04:48:00;30.45;;;26.83;;
793;SDS011;380;48.738;9.214;2023-05-23T04:50:27;35.35;;;29.92;;
793;SDS011;380;48.738;9.214;2023-05-23T04:52:56;31.52;;;27.98;;
793;SDS011;380;48.738;9.214;2023-05-23T04:55:22;31.45;;;26.10;;
793;SDS011;380;48.738;9.214;2023-05-23T04:57:48;33.53;;;28.60;;
793;SDS011;380;48.738;9.214;2023-05-23T05:00:14;37.50;;;29.58;;
793;SDS011;380;48.738;9.214;2023-05-23T05:02:40;33.60;;;29.23;;
793;SDS011;380;48.738;9.214;2023-05-23T05:05:07;35.15;;;27.10;;
793;SDS011;380;48.738;9.214;2023-05-23T05:07:33;31.98;;;28.50;;
793;SDS011;380;48.738;9.214;2023-05-23T05:10:03;33.67;;;26.87;;
793;SDS011;380;48.738;9.214;2023-05-23T05:12:29;30.92;;;27.85;;
793;SDS011;380;48.738;9.214;2023-05-23T05:14:55;32.58;;;27.15;;
793;SDS011;380;48.738;9.214;2023-05-23T05:17:21;31.35;;;27.45;;
793;SDS011;380;48.738;9.214;2023-05-23T05:19:47;32.53;;;28.15;;
793;SDS011;380;48.738;9.214;2023-05-23T05:22:13;28.98;;;25.27;;
793;SDS011;380;48.738;9.214;2023-05-23T05:24:39;29.98;;;26.55;;
793;SDS011;380;48.738;9.214;2023-05-23T05:27:05;31.80;;;28.30;;
793;SDS011;380;48.738;9.214;2023-05-23T05:29:33;30.70;;;27.15;;
793;SDS011;380;48.738;9.214;2023-05-23T05:31:59;35.33;;;27.13;;
793;SDS011;380;48.738;9.214;2023-05-23T05:34:25;33.97;;;29.00;;
793;SDS011;380;48.738;9.214;2023-05-23T05:36:51;29.77;;;26.33;;
793;SDS011;380;48.738;9.214;2023-05-23T05:39:21;29.60;;;26.38;;
793;SDS011;380;48.738;9.214;2023-05-23T05:41:47;28.67;;;25.88;;
793;SDS011;380;48.738;9.214;2023-05-23T05:44:13;29.95;;;26.27;;
793;SDS011;380;48.738;9.214;2023-05-23T05:46:39;30.50;;;27.33;;
793;SDS011;380;48.738;9.214;2023-05-23T05:49:05;31.33;;;27.88;;
793;SDS011;380;48.738;9.214;2023-05-23T05:51:31;30.05;;;25.92;;
793;SDS011;380;48.738;9.214;2023-05-23T05:53:57;28.00;;;25.13;;
793;SDS011;380;48.738;9.214;2023-05-23T05:56:23;29.17;;;26.20;;
793;SDS011;380;48.738;9.214;2023-05-23T05:58:50;29.30;;;26.25;;
793;SDS011;380;48.738;9.214;2023-05-23T06:01:16;30.40;;;27.10;;
793;SDS011;380;48.738;9.214;2023-05-23T06:03:42;30.42;;;24.92;;
793;SDS011;380;48.738;9.214;2023-05-23T06:06:08;26.35;;;23.63;;
793;SDS011;380;48.738;9.214;2023-05-23T06:08:34;29.65;;;26.50;;
793;SDS011;380;48.738;9.214;2023-05-23T06:11:00;28.08;;;25.10;;
793;SDS011;380;48.738;9.214;2023-05-23T06:13:26;27.90;;;24.92;;
793;SDS011;380;48.738;9.214;2023-05-23T06:15:52;28.55;;;25.42;;
793;SDS011;380;48.738;9.214;2023-05-23T06:18:18;27.55;;;24.73;;
793;SDS011;380;48.738;9.214;2023-05-23T06:20:44;32.28;;;26.63;;
793;SDS011;380;48.738;9.214;2023-05-23T06:23:10;34.40;;;26.67;;
793;SDS011;380;48.738;9.214;2023-05-23T06:25:36;30.30;;;26.48;;
793;SDS011;380;48.738;9.214;2023-05-23T06:28:01;31.27;;;26.42;;
793;SDS011;380;48.738;9.214;2023-05-23T06:30:27;31.50;;;27.85;;
793;SDS011;380;48.738;9.214;2023-05-23T06:32:53;31.65;;;26.17;;
793;SDS011;380;48.738;9.214;2023-05-23T06:35:19;28.02;;;25.02;;
793;SDS011;380;48.738;9.214;2023-05-23T06:37:45;29.67;;;26.45;;
793;SDS011;380;48.738;9.214;2023-05-23T06:40:12;28.63;;;25.80;;
793;SDS011;380;48.738;9.214;2023-05-23T06:42:38;28.73;;;25.70;;
793;SDS011;380;48.738;9.214;2023-05-23T06:45:04;30.50;;;27.27;;
793;SDS011;380;48.738;9.214;2023-05-23T06:47:30;30.60;;;27.30;;
793;SDS011;380;48.738;9.214;2023-05-23T06:49:56;27.75;;;24.90;;
793;SDS011;380;48.738;9.214;2023-05-23T06:52:22;30.15;;;26.95;;
793;SDS011;380;48.738;9.214;2023-05-23T06:54:49;30.98;;;27.58;;
793;SDS011;380;48.738;9.214;2023-05-23T06:57:15;29.08;;;26.30;;
793;SDS011;380;48.738;9.214;2023-05-23T06:59:41;34.72;;;26.30;;
793;SDS011;380;48.738;9.214;2023-05-23T07:02:07;29.92;;;24.83;;
793;SDS011;380;48.738;9.214;2023-05-23T07:04:33;28.45;;;25.45;;
793;SDS011;380;48.738;9.214;2023-05-23T07:06:59;27.67;;;24.73;;
793;SDS011;380;48.738;9.214;2023-05-23T07:09:26;28.10;;;25.20;;
793;SDS011;380;48.738;9.214;2023-05-23T07:11:52;28.58;;;25.80;;
793;SDS011;380;48.738;9.214;2023-05-23T07:14:18;29.05;;;26.17;;
793;SDS011;380;48.738;9.214;2023-05-23T07:16:44;29.70;;;26.70;;
793;SDS011;380;48.738;9.214;2023-05-23T07:19:10;29.70;;;26.80;;
793;SDS011;380;48.738;9.214;2023-05-23T07:21:36;28.25;;;25.40;;
793;SDS011;380;48.738;9.214;2023-05-23T07:24:02;29.55;;;26.45;;
793;SDS011;380;48.738;9.214;2023-05-23T07:26:28;29.25;;;25.52;;
793;SDS011;380;48.738;9.214;2023-05-23T07:28:54;28.40;;;24.30;;
793;SDS011;380;48.738;9.214;2023-05-23T07:31:20;29.00;;;26.00;;
793;SDS011;380;48.738;9.214;2023-05-23T07:33:47;27.05;;;23.95;;
793;SDS011;380;48.738;9.214;2023-05-23T07:36:12;26.15;;;23.50;;
793;SDS011;380;48.738;9.214;2023-05-23T07:38:39;25.27;;;22.67;;
793;SDS011;380;48.738;9.214;2023-05-23T07:41:05;23.83;;;21.33;;
793;SDS011;380;48.738;9.214;2023-05-23T07:43:31;22.33;;;20.13;;
793;SDS011;380;48.738;9.214;2023-05-23T07:45:56;22.80;;;20.40;;
793;SDS011;380;48.738;9.214;2023-05-23T07:48:22;22.08;;;19.92;;
793;SDS011;380;48.738;9.214;2023-05-23T07:50:51;23.77;;;21.38;;
793;SDS011;380;48.738;9.214;2023-05-23T07:53:19;24.80;;;22.45;;
793;SDS011;380;48.738;9.214;2023-05-23T07:55:45;22.83;;;20.42;;
793;SDS011;380;48.738;9.214;2023-05-23T07:58:11;24.42;;;22.00;;
793;SDS011;380;48.738;9.214;2023-05-23T08:00:37;24.73;;;22.25;;
793;SDS011;380;48.738;9.214;2023-05-23T08:03:05;26.45;;;23.67;;
793;SDS011;380;48.738;9.214;2023-05-23T08:05:31;26.15;;;23.45;;
793;SDS011;380;48.738;9.214;2023-05-23T08:07:57;28.48;;;25.58;;
793;SDS011;380;48.738;9.214;2023-05-23T08:10:23;24.88;;;22.30;;
793;SDS011;380;48.738;9.214;2023-05-23T08:12:52;23.92;;;21.08;;
793;SDS011;380;48.738;9.214;2023-05-23T08:15:18;23.85;;;21.20;;
793;SDS011;380;48.738;9.214;2023-05-23T08:17:44;19.65;;;17.65;;
793;SDS011;380;48.738;9.214;2023-05-23T08:20:10;19.58;;;17.67;;
793;SDS011;380;48.738;9.214;2023-05-23T08:22:36;20.58;;;18.48;;
793;SDS011;380;48.738;9.214;2023-05-23T08:25:02;18.85;;;16.90;;
793;SDS011;380;48.738;9.214;2023-05-23T08:27:28;19.10;;;17.17;;
793;SDS011;380;48.738;9.214;2023-05-23T08:29:55;20.63;;;18.42;;
793;SDS011;380;48.738;9.214;2023-05-23T08:32:21;20.33;;;18.20;;
793;SDS011;380;48.738;9.214;2023-05-23T08:34:47;19.42;;;16.92;;
793;SDS011;380;48.738;9.214;2023-05-23T08:37:13;18.40;;;16.55;;
793;SDS011;380;48.738;9.214;2023-05-23T08:39:39;19.27;;;17.27;;
793;SDS011;380;48.738;9.214;2023-05-23T08:42:05;19.15;;;17.17;;
793;SDS011;380;48.738;9.214;2023-05-23T08:44:31;17.63;;;15.70;;
793;SDS011;380;48.738;9.214;2023-05-23T08:46:58;18.55;;;16.65;;
793;SDS011;380;48.738;9.214;2023-05-23T08:49:24;19.05;;;17.25;;
793;SDS011;380;48.738;9.214;2023-05-23T08:51:51;17.70;;;15.85;;
793;SDS011;380;48.738;9.214;2023-05-23T08:54:17;17.95;;;16.15;;
793;SDS011;380;48.738;9.214;2023-05-23T08:56:43;17.40;;;14.57;;
793;SDS011;380;48.738;9.214;2023-05-23T08:59:09;17.40;;;15.65;;
793;SDS011;380;48.738;9.214;2023-05-23T09:01:36;16.73;;;14.60;;
793;SDS011;380;48.738;9.214;2023-05-23T09:04:04;15.68;;;14.07;;
793;SDS011;380;48.738;9.214;2023-05-23T09:06:30;16.85;;;14.75;;
793;SDS011;380;48.738;9.214;2023-05-23T09:08:56;16.25;;;14.63;;
793;SDS011;380;48.738;9.214;2023-05-23T09:11:23;15.93;;;14.23;;
793;SDS011;380;48.738;9.214;2023-05-23T09:13:49;15.77;;;13.35;;
793;SDS011;380;48.738;9.214;2023-05-23T09:16:15;16.30;;;14.55;;
793;SDS011;380;48.738;9.214;2023-05-23T09:18:44;18.05;;;16.13;;
793;SDS011;380;48.738;9.214;2023-05-23T09:21:11;18.42;;;16.15;;
793;SDS011;380;48.738;9.214;2023-05-23T09:23:38;16.58;;;15.07;;
793;SDS011;380;48.738;9.214;2023-05-23T09:26:05;16.92;;;15.23;;
793;SDS011;380;48.738;9.214;2023-05-23T09:28:34;15.85;;;14.25;;
793;SDS011;380;48.738;9.214;2023-05-23T09:31:01;15.32;;;13.82;;
793;SDS011;380;48.738;9.214;2023-05-23T09:33:38;17.35;;;13.90;;
793;SDS011;380;48.738;9.214;2023-05-23T09:36:05;16.35;;;14.75;;
793;SDS011;380;48.738;9.214;2023-05-23T09:38:31;15.88;;;14.23;;
793;SDS011;380;48.738;9.214;2023-05-23T09:40:58;14.93;;;13.48;;
793;SDS011;380;48.738;9.214;2023-05-23T09:43:24;14.02;;;12.52;;
793;SDS011;380;48.738;9.214;2023-05-23T09:45:52;14.98;;;13.57;;
793;SDS011;380;48.738;9.214;2023-05-23T09:48:19;13.32;;;12.05;;
793;SDS011;380;48.738;9.214;2023-05-23T09:50:53;13.57;;;12.27;;
793;SDS011;380;48.738;9.214;2023-05-23T09:53:19;13.40;;;12.13;;
793;SDS011;380;48.738;9.214;2023-05-23T09:55:47;14.10;;;11.68;;
793;SDS011;380;48.738;9.214;2023-05-23T09:58:14;12.93;;;11.05;;
793;SDS011;380;48.738;9.214;2023-05-23T10:00:41;13.65;;;11.93;;
793;SDS011;380;48.738;9.214;2023-05-23T10:03:09;12.93;;;11.68;;
793;SDS011;380;48.738;9.214;2023-05-23T10:05:52;14.43;;;11.93;;
793;SDS011;380;48.738;9.214;2023-05-23T10:08:26;12.02;;;10.82;;
793;SDS011;380;48.738;9.214;2023-05-23T10:11:07;13.77;;;11.82;;
793;SDS011;380;48.738;9.214;2023-05-23T10:13:41;11.48;;;10.07;;
793;SDS011;380;48.738;9.214;2023-05-23T10:16:08;14.07;;;11.82;;
793;SDS011;380;48.738;9.214;2023-05-23T10:18:42;12.88;;;11.40;;
793;SDS011;380;48.738;9.214;2023-05-23T10:21:08;12.32;;;10.75;;
793;SDS011;380;48.738;9.214;2023-05-23T10:23:36;13.63;;;10.13;;
793;SDS011;380;48.738;9.214;2023-05-23T10:26:03;11.40;;;10.27;;
793;SDS011;380;48.738;9.214;2023-05-23T10:28:29;11.70;;;10.55;;
793;SDS011;380;48.738;9.214;2023-05-23T10:30:55;11.23;;;8.82;;
793;SDS011;380;48.738;9.214;2023-05-23T10:33:22;12.38;;;9.52;;
793;SDS011;380;48.738;9.214;2023-05-23T10:35:53;11.50;;;9.90;;
793;SDS011;380;48.738;9.214;2023-05-23T10:38:25;9.23;;;8.32;;
793;SDS011;380;48.738;9.214;2023-05-23T10:46:03;11.77;;;9.20;;
793;SDS011;380;48.738;9.214;2023-05-23T10:48:32;8.98;;;8.07;;
793;SDS011;380;48.738;9.214;2023-05-23T10:51:02;9.60;;;8.55;;
793;SDS011;380;48.738;9.214;2023-05-23T10:53:31;8.60;;;7.70;;
793;SDS011;380;48.738;9.214;2023-05-23T10:55:57;8.95;;;8.05;;
793;SDS011;380;48.738;9.214;2023-05-23T10:58:23;9.02;;;8.13;;
793;SDS011;380;48.738;9.214;2023-05-23T11:00:52;9.85;;;8.13;;
793;SDS011;380;48.738;9.214;2023-05-23T11:03:29;8.23;;;7.38;;
793;SDS011;380;48.738;9.214;2023-05-23T11:05:57;8.13;;;7.28;;
793;SDS011;380;48.738;9.214;2023-05-23T11:08:23;9.02;;;8.13;;
793;SDS011;380;48.738;9.214;2023-05-23T11:10:57;8.75;;;7.85;;
793;SDS011;380;48.738;9.214;2023-05-23T11:13:24;8.57;;;7.63;;
793;SDS011;380;48.738;9.214;2023-05-23T11:15:50;8.18;;;7.38;;
793;SDS011;380;48.738;9.214;2023-05-23T11:18:19;9.40;;;7.45;;
793;SDS011;380;48.738;9.214;2023-05-23T11:20:45;9.05;;;7.47;;
793;SDS011;380;48.738;9.214;2023-05-23T11:23:12;8.38;;;7.32;;
793;SDS011;380;48.738;9.214;2023-05-23T11:25:41;7.88;;;6.72;;
793;SDS011;380;48.738;9.214;2023-05-23T11:28:08;8.20;;;7.15;;
793;SDS011;380;48.738;9.214;2023-05-23T11:30:34;11.18;;;6.70;;
793;SDS011;380;48.738;9.214;2023-05-23T11:33:05;7.50;;;6.80;;
793;SDS011;380;48.738;9.214;2023-05-23T11:35:37;8.23;;;6.93;;
793;SDS011;380;48.738;9.214;2023-05-23T11:38:03;7.20;;;6.50;;
793;SDS011;380;48.738;9.214;2023-05-23T11:40:31;6.90;;;6.20;;
793;SDS011;380;48.738;9.214;2023-05-23T11:42:58;7.20;;;6.50;;
793;SDS011;380;48.738;9.214;2023-05-23T11:45:25;7.38;;;5.63;;
793;SDS011;380;48.738;9.214;2023-05-23T11:47:51;7.57;;;6.78;;
793;SDS011;380;48.738;9.214;2023-05-23T11:50:17;6.68;;;6.00;;
793;SDS011;380;48.738;9.214;2023-05-23T11:52:44;7.18;;;6.45;;
793;SDS011;380;48.738;9.214;2023-05-23T11:55:15;7.93;;;7.13;;
793;SDS011;380;48.738;9.214;2023-05-23T11:57:41;8.23;;;7.43;;
793;SDS011;380;48.738;9.214;2023-05-23T12:00:08;8.43;;;7.63;;
793;SDS011;380;48.738;9.214;2023-05-23T12:02:38;8.70;;;7.80;;
793;SDS011;380;48.738;9.214;2023-05-23T12:05:08;8.00;;;7.20;;
793;SDS011;380;48.738;9.214;2023-05-23T12:07:35;6.68;;;5.97;;
793;SDS011;380;48.738;9.214;2023-05-23T12:10:02;10.25;;;5.82;;
793;SDS011;380;48.738;9.214;2023-05-23T12:12:28;8.10;;;7.18;;
793;SDS011;380;48.738;9.214;2023-05-23T12:14:54;8.18;;;7.07;;
793;SDS011;380;48.738;9.214;2023-05-23T12:17:21;7.82;;;7.03;;
793;SDS011;380;48.738;9.214;2023-05-23T12:19:47;8.98;;;7.88;;
793;SDS011;380;48.738;9.214;2023-05-23T12:22:13;8.90;;;7.05;;
793;SDS011;380;48.738;9.214;2023-05-23T12:24:46;7.18;;;6.30;;
793;SDS011;380;48.738;9.214;2023-05-23T12:27:12;7.72;;;6.97;;
793;SDS011;380;48.738;9.214;2023-05-23T12:29:37;8.05;;;7.25;;
793;SDS011;380;48.738;9.214;2023-05-23T12:32:04;8.57;;;6.97;;
793;SDS011;380;48.738;9.214;2023-05-23T12:34:30;7.78;;;6.80;;
793;SDS011;380;48.738;9.214;2023-05-23T12:36:57;6.82;;;5.78;;
793;SDS011;380;48.738;9.214;2023-05-23T12:39:24;6.20;;;5.60;;
793;SDS011;380;48.738;9.214;2023-05-23T12:41:53;6.97;;;6.27;;
793;SDS011;380;48.738;9.214;2023-05-23T12:44:23;6.78;;;5.60;;
793;SDS011;380;48.738;9.214;2023-05-23T12:46:49;7.57;;;6.00;;
793;SDS011;380;48.738;9.214;2023-05-23T12:49:14;6.63;;;5.72;;
793;SDS011;380;48.738;9.214;2023-05-23T12:51:40;6.07;;;5.50;;
793;SDS011;380;48.738;9.214;2023-05-23T12:54:07;7.72;;;6.25;;
793;SDS011;380;48.738;9.214;2023-05-23T12:56:33;8.18;;;6.85;;
793;SDS011;380;48.738;9.214;2023-05-23T12:58:59;8.57;;;5.68;;
793;SDS011;380;48.738;9.214;2023-05-23T13:01:26;5.70;;;5.18;;
793;SDS011;380;48.738;9.214;2023-05-23T13:03:52;7.10;;;6.07;;
793;SDS011;380;48.738;9.214;2023-05-23T13:06:18;7.85;;;6.72;;
793;SDS011;380;48.738;9.214;2023-05-23T13:08:44;6.10;;;4.75;;
793;SDS011;380;48.738;9.214;2023-05-23T13:11:10;5.82;;;5.03;;
793;SDS011;380;48.738;9.214;2023-05-23T13:13:36;5.75;;;4.70;;
793;SDS011;380;48.738;9.214;2023-05-23T13:16:02;5.90;;;5.30;;
793;SDS011;380;48.738;9.214;2023-05-23T13:18:28;4.75;;;4.25;;
793;SDS011;380;48.738;9.214;2023-05-23T13:20:54;5.13;;;4.63;;
793;SDS011;380;48.738;9.214;2023-05-23T13:23:20;5.35;;;4.47;;
793;SDS011;380;48.738;9.214;2023-05-23T13:25:46;4.85;;;3.85;;
793;SDS011;380;48.738;9.214;2023-05-23T13:28:15;5.10;;;4.57;;
793;SDS011;380;48.738;9.214;2023-05-23T13:30:41;5.97;;;4.05;;
793;SDS011;380;48.738;9.214;2023-05-23T13:33:07;4.35;;;3.88;;
793;SDS011;380;48.738;9.214;2023-05-23T13:35:33;5.57;;;4.63;;
793;SDS011;380;48.738;9.214;2023-05-23T13:37:59;4.93;;;4.32;;
793;SDS011;380;48.738;9.214;2023-05-23T13:40:25;6.60;;;4.90;;
793;SDS011;380;48.738;9.214;2023-05-23T13:42:51;6.55;;;4.07;;
793;SDS011;380;48.738;9.214;2023-05-23T13:45:17;4.80;;;4.30;;
793;SDS011;380;48.738;9.214;2023-05-23T13:47:43;6.18;;;4.68;;
793;SDS011;380;48.738;9.214;2023-05-23T13:50:10;4.88;;;4.38;;
793;SDS011;380;48.738;9.214;2023-05-23T13:52:36;5.35;;;4.78;;
793;SDS011;380;48.738;9.214;2023-05-23T13:55:03;5.38;;;4.25;;
793;SDS011;380;48.738;9.214;2023-05-23T13:57:29;5.22;;;4.15;;
793;SDS011;380;48.738;9.214;2023-05-23T13:59:55;5.60;;;4.57;;
793;SDS011;380;48.738;9.214;2023-05-23T14:02:21;12.88;;;4.60;;
793;SDS011;380;48.738;9.214;2023-05-23T14:04:47;5.38;;;4.15;;
793;SDS011;380;48.738;9.214;2023-05-23T14:07:16;4.65;;;4.07;;
793;SDS011;380;48.738;9.214;2023-05-23T14:09:42;4.80;;;3.40;;
793;SDS011;380;48.738;9.214;2023-05-23T14:12:08;4.20;;;3.55;;
793;SDS011;380;48.738;9.214;2023-05-23T14:14:35;4.95;;;3.97;;
793;SDS011;380;48.738;9.214;2023-05-23T14:17:01;3.58;;;3.10;;
793;SDS011;380;48.738;9.214;2023-05-23T14:19:27;4.68;;;4.03;;
793;SDS011;380;48.738;9.214;2023-05-23T14:21:53;5.28;;;4.35;;
793;SDS011;380;48.738;9.214;2023-05-23T14:24:19;6.50;;;4.00;;
793;SDS011;380;48.738;9.214;2023-05-23T14:26:46;5.38;;;3.80;;
793;SDS011;380;48.738;9.214;2023-05-23T14:29:14;5.05;;;3.70;;
793;SDS011;380;48.738;9.214;2023-05-23T14:31:40;4.63;;;3.67;;
793;SDS011;380;48.738;9.214;2023-05-23T14:34:06;4.90;;;3.92;;
793;SDS011;380;48.738;9.214;2023-05-23T14:36:32;4.38;;;3.50;;
793;SDS011;380;48.738;9.214;2023-05-23T14:39:00;5.18;;;4.00;;
793;SDS011;380;48.738;9.214;2023-05-23T14:41:28;5.80;;;3.85;;
793;SDS011;380;48.738;9.214;2023-05-23T14:43:55;5.10;;;3.67;;
793;SDS011;380;48.738;9.214;2023-05-23T14:46:21;5.10;;;4.57;;
793;SDS011;380;48.738;9.214;2023-05-23T14:48:47;7.13;;;4.30;;
793;SDS011;380;48.738;9.214;2023-05-23T14:51:13;5.97;;;3.65;;
793;SDS011;380;48.738;9.214;2023-05-23T14:53:39;4.63;;;3.88;;
793;SDS011;380;48.738;9.214;2023-05-23T14:56:05;4.63;;;3.65;;
793;SDS011;380;48.738;9.214;2023-05-23T14:58:31;3.90;;;3.35;;
793;SDS011;380;48.738;9.214;2023-05-23T15:00:57;5.40;;;4.15;;
793;SDS011;380;48.738;9.214;2023-05-23T15:03:23;7.10;;;4.50;;
793;SDS011;380;48.738;9.214;2023-05-23T15:05:49;3.78;;;3.45;;
793;SDS011;380;48.738;9.214;2023-05-23T15:08:15;5.03;;;4.30;;
793;SDS011;380;48.738;9.214;2023-05-23T15:10:42;3.50;;;3.00;;
793;SDS011;380;48.738;9.214;2023-05-23T15:13:08;4.25;;;3.33;;
793;SDS011;380;48.738;9.214;2023-05-23T15:15:34;4.13;;;3.72;;
793;SDS011;380;48.738;9.214;2023-05-23T15:18:05;9.93;;;4.22;;
793;SDS011;380;48.738;9.214;2023-05-23T15:20:33;4.13;;;3.60;;
793;SDS011;380;48.738;9.214;2023-05-23T15:23:00;6.85;;;3.65;;
793;SDS011;380;48.738;9.214;2023-05-23T15:25:26;5.47;;;4.10;;
793;SDS011;380;48.738;9.214;2023-05-23T15:27:52;4.47;;;3.60;;
793;SDS011;380;48.738;9.214;2023-05-23T15:30:18;4.75;;;3.20;;
793;SDS011;380;48.738;9.214;2023-05-23T15:32:44;3.80;;;2.95;;
793;SDS011;380;48.738;9.214;2023-05-23T15:35:10;3.78;;;2.67;;